sensor_id;sensor_type;location;lat;lon;timestamp;temperature;humidity
17845;DHT22;9047;53.486;10.218;2023-04-01T00:00:12;10.20;99.90
17845;DHT22;9047;53.486;10.218;2023-04-01T00:02:42;10.20;99.90
17845;DHT22;9047;53.486;10.218;2023-04-01T00:05:10;10.10;99.90
17845;DHT22;9047;53.486;10.218;2023-04-01T00:07:38;10.10;99.90
17845;DHT22;9047;53.486;10.218;2023-04-01T00:10:12;10.10;99.90
17845;DHT22;9047;53.486;10.218;2023-04-01T00:12:40;10.10;99.90
17845;DHT22;9047;53.486;10.218;2023-04-01T00:15:10;10.10;99.90
17845;DHT22;9047;53.486;10.218;2023-04-01T00:17:45;10.00;99.90
17845;DHT22;9047;53.486;10.218;2023-04-01T00:20:12;10.00;99.90
17845;DHT22;9047;53.486;10.218;2023-04-01T00:22:43;10.00;99.90
17845;DHT22;9047;53.486;10.218;2023-04-01T00:25:13;10.00;99.90
17845;DHT22;9047;53.486;10.218;2023-04-01T00:27:41;10.00;99.90
17845;DHT22;9047;53.486;10.218;2023-04-01T00:30:11;10.00;99.90
17845;DHT22;9047;53.486;10.218;2023-04-01T00:32:41;9.90;99.90
17845;DHT22;9047;53.486;10.218;2023-04-01T00:35:12;9.90;99.90
17845;DHT22;9047;53.486;10.218;2023-04-01T00:37:42;9.90;99.90
17845;DHT22;9047;53.486;10.218;2023-04-01T00:40:24;9.90;99.90
17845;DHT22;9047;53.486;10.218;2023-04-01T00:42:53;9.90;99.90
17845;DHT22;9047;53.486;10.218;2023-04-01T00:45:39;9.90;99.90
17845;DHT22;9047;53.486;10.218;2023-04-01T00:48:10;9.80;99.90
17845;DHT22;9047;53.486;10.218;2023-04-01T00:50:46;9.80;99.90
17845;DHT22;9047;53.486;10.218;2023-04-01T00:53:16;9.80;99.90
17845;DHT22;9047;53.486;10.218;2023-04-01T00:55:51;9.80;99.90
17845;DHT22;9047;53.486;10.218;2023-04-01T00:58:26;9.80;99.90
17845;DHT22;9047;53.486;10.218;2023-04-01T01:00:59;9.80;99.90
17845;DHT22;9047;53.486;10.218;2023-04-01T01:03:26;9.80;99.90
17845;DHT22;9047;53.486;10.218;2023-04-01T01:06:28;9.80;99.90
17845;DHT22;9047;53.486;10.218;2023-04-01T01:11:54;9.80;99.90
17845;DHT22;9047;53.486;10.218;2023-04-01T01:14:37;9.70;99.90
17845;DHT22;9047;53.486;10.218;2023-04-01T01:17:12;9.70;99.90
17845;DHT22;9047;53.486;10.218;2023-04-01T01:20:03;9.70;99.90
17845;DHT22;9047;53.486;10.218;2023-04-01T01:22:58;9.70;99.90
17845;DHT22;9047;53.486;10.218;2023-04-01T01:25:40;9.70;99.90
17845;DHT22;9047;53.486;10.218;2023-04-01T01:28:29;9.70;99.90
17845;DHT22;9047;53.486;10.218;2023-04-01T01:31:10;9.70;99.90
17845;DHT22;9047;53.486;10.218;2023-04-01T01:33:50;9.70;99.90
17845;DHT22;9047;53.486;10.218;2023-04-01T01:36:30;9.70;99.90
17845;DHT22;9047;53.486;10.218;2023-04-01T01:39:01;9.70;99.90
17845;DHT22;9047;53.486;10.218;2023-04-01T01:41:32;9.70;99.90
17845;DHT22;9047;53.486;10.218;2023-04-01T01:44:04;9.70;99.90
17845;DHT22;9047;53.486;10.218;2023-04-01T01:46:33;9.70;99.90
17845;DHT22;9047;53.486;10.218;2023-04-01T01:49:06;9.60;99.90
17845;DHT22;9047;53.486;10.218;2023-04-01T01:51:37;9.70;99.90
17845;DHT22;9047;53.486;10.218;2023-04-01T01:54:04;9.70;99.90
17845;DHT22;9047;53.486;10.218;2023-04-01T01:56:39;9.70;99.90
17845;DHT22;9047;53.486;10.218;2023-04-01T01:59:10;9.80;99.90
17845;DHT22;9047;53.486;10.218;2023-04-01T02:01:39;9.70;99.90
17845;DHT22;9047;53.486;10.218;2023-04-01T02:04:09;9.70;99.90
17845;DHT22;9047;53.486;10.218;2023-04-01T02:06:44;9.70;99.90
17845;DHT22;9047;53.486;10.218;2023-04-01T02:09:13;9.70;99.90
17845;DHT22;9047;53.486;10.218;2023-04-01T02:11:43;9.70;99.90
17845;DHT22;9047;53.486;10.218;2023-04-01T02:14:20;9.70;99.90
17845;DHT22;9047;53.486;10.218;2023-04-01T02:16:55;9.70;99.90
17845;DHT22;9047;53.486;10.218;2023-04-01T02:19:27;9.70;99.90
17845;DHT22;9047;53.486;10.218;2023-04-01T02:22:03;9.70;99.90
17845;DHT22;9047;53.486;10.218;2023-04-01T02:24:31;9.70;99.90
17845;DHT22;9047;53.486;10.218;2023-04-01T02:27:02;9.70;99.90
17845;DHT22;9047;53.486;10.218;2023-04-01T02:29:31;9.70;99.90
17845;DHT22;9047;53.486;10.218;2023-04-01T02:32:00;9.60;99.90
17845;DHT22;9047;53.486;10.218;2023-04-01T02:34:37;9.70;99.90
17845;DHT22;9047;53.486;10.218;2023-04-01T02:37:06;9.70;99.90
17845;DHT22;9047;53.486;10.218;2023-04-01T02:39:34;9.70;99.90
17845;DHT22;9047;53.486;10.218;2023-04-01T02:42:06;9.60;99.90
17845;DHT22;9047;53.486;10.218;2023-04-01T02:44:34;9.70;99.90
17845;DHT22;9047;53.486;10.218;2023-04-01T02:47:05;9.60;99.90
17845;DHT22;9047;53.486;10.218;2023-04-01T02:49:33;9.60;99.90
17845;DHT22;9047;53.486;10.218;2023-04-01T02:52:00;9.60;99.90
17845;DHT22;9047;53.486;10.218;2023-04-01T02:54:31;9.60;99.90
17845;DHT22;9047;53.486;10.218;2023-04-01T02:57:00;9.60;99.90
17845;DHT22;9047;53.486;10.218;2023-04-01T02:59:28;9.60;99.90
17845;DHT22;9047;53.486;10.218;2023-04-01T03:01:57;9.60;99.90
17845;DHT22;9047;53.486;10.218;2023-04-01T03:04:27;9.60;99.90
17845;DHT22;9047;53.486;10.218;2023-04-01T03:06:56;9.60;99.90
17845;DHT22;9047;53.486;10.218;2023-04-01T03:09:39;9.60;99.90
17845;DHT22;9047;53.486;10.218;2023-04-01T03:12:10;9.60;99.90
17845;DHT22;9047;53.486;10.218;2023-04-01T03:14:37;9.60;99.90
17845;DHT22;9047;53.486;10.218;2023-04-01T03:17:07;9.60;99.90
17845;DHT22;9047;53.486;10.218;2023-04-01T03:19:34;9.60;99.90
17845;DHT22;9047;53.486;10.218;2023-04-01T03:22:02;9.60;99.90
17845;DHT22;9047;53.486;10.218;2023-04-01T03:24:30;9.60;99.90
17845;DHT22;9047;53.486;10.218;2023-04-01T03:26:59;9.60;99.90
17845;DHT22;9047;53.486;10.218;2023-04-01T03:29:28;9.60;99.90
17845;DHT22;9047;53.486;10.218;2023-04-01T03:31:55;9.60;99.90
17845;DHT22;9047;53.486;10.218;2023-04-01T03:34:33;9.60;99.90
17845;DHT22;9047;53.486;10.218;2023-04-01T03:37:02;9.60;99.90
17845;DHT22;9047;53.486;10.218;2023-04-01T03:39:33;9.60;99.90
17845;DHT22;9047;53.486;10.218;2023-04-01T03:42:00;9.60;99.90
17845;DHT22;9047;53.486;10.218;2023-04-01T03:44:31;9.60;99.90
17845;DHT22;9047;53.486;10.218;2023-04-01T03:46:59;9.60;99.90
17845;DHT22;9047;53.486;10.218;2023-04-01T03:49:26;9.60;99.90
17845;DHT22;9047;53.486;10.218;2023-04-01T03:51:53;9.60;99.90
17845;DHT22;9047;53.486;10.218;2023-04-01T03:54:25;9.50;99.90
17845;DHT22;9047;53.486;10.218;2023-04-01T03:56:54;9.50;99.90
17845;DHT22;9047;53.486;10.218;2023-04-01T03:59:28;9.50;99.90
17845;DHT22;9047;53.486;10.218;2023-04-01T04:01:59;9.60;99.90
17845;DHT22;9047;53.486;10.218;2023-04-01T04:04:26;9.60;99.90
17845;DHT22;9047;53.486;10.218;2023-04-01T04:06:57;9.60;99.90
17845;DHT22;9047;53.486;10.218;2023-04-01T04:09:24;9.60;99.90
17845;DHT22;9047;53.486;10.218;2023-04-01T04:11:54;9.50;99.90
17845;DHT22;9047;53.486;10.218;2023-04-01T04:14:29;9.50;99.90
17845;DHT22;9047;53.486;10.218;2023-04-01T04:16:58;9.50;99.90
17845;DHT22;9047;53.486;10.218;2023-04-01T04:19:25;9.50;99.90
17845;DHT22;9047;53.486;10.218;2023-04-01T04:21:52;9.50;99.90
17845;DHT22;9047;53.486;10.218;2023-04-01T04:24:20;9.50;99.90
17845;DHT22;9047;53.486;10.218;2023-04-01T04:26:49;9.50;99.90
17845;DHT22;9047;53.486;10.218;2023-04-01T04:29:18;9.60;99.90
17845;DHT22;9047;53.486;10.218;2023-04-01T04:31:48;9.60;99.90
17845;DHT22;9047;53.486;10.218;2023-04-01T04:34:18;9.60;99.90
17845;DHT22;9047;53.486;10.218;2023-04-01T04:36:47;9.60;99.90
17845;DHT22;9047;53.486;10.218;2023-04-01T04:39:16;9.50;99.90
17845;DHT22;9047;53.486;10.218;2023-04-01T04:41:44;9.50;99.90
17845;DHT22;9047;53.486;10.218;2023-04-01T04:44:11;9.50;99.90
17845;DHT22;9047;53.486;10.218;2023-04-01T04:46:39;9.50;99.90
17845;DHT22;9047;53.486;10.218;2023-04-01T04:49:07;9.50;99.90
17845;DHT22;9047;53.486;10.218;2023-04-01T04:51:34;9.50;99.90
17845;DHT22;9047;53.486;10.218;2023-04-01T04:54:01;9.50;99.90
17845;DHT22;9047;53.486;10.218;2023-04-01T04:56:28;9.50;99.90
17845;DHT22;9047;53.486;10.218;2023-04-01T04:58:56;9.50;99.90
17845;DHT22;9047;53.486;10.218;2023-04-01T05:01:24;9.50;99.90
17845;DHT22;9047;53.486;10.218;2023-04-01T05:03:53;9.60;99.90
17845;DHT22;9047;53.486;10.218;2023-04-01T05:06:23;9.50;99.90
17845;DHT22;9047;53.486;10.218;2023-04-01T05:08:51;9.60;99.90
17845;DHT22;9047;53.486;10.218;2023-04-01T05:11:21;9.60;99.90
17845;DHT22;9047;53.486;10.218;2023-04-01T05:13:48;9.50;99.90
17845;DHT22;9047;53.486;10.218;2023-04-01T05:16:17;9.60;99.90
17845;DHT22;9047;53.486;10.218;2023-04-01T05:18:44;9.50;99.90
17845;DHT22;9047;53.486;10.218;2023-04-01T05:21:14;9.60;99.90
17845;DHT22;9047;53.486;10.218;2023-04-01T05:23:41;9.60;99.90
17845;DHT22;9047;53.486;10.218;2023-04-01T05:26:13;9.60;99.90
17845;DHT22;9047;53.486;10.218;2023-04-01T05:28:43;9.60;99.90
17845;DHT22;9047;53.486;10.218;2023-04-01T05:31:10;9.60;99.90
17845;DHT22;9047;53.486;10.218;2023-04-01T05:33:38;9.60;99.90
17845;DHT22;9047;53.486;10.218;2023-04-01T05:36:09;9.60;99.90
17845;DHT22;9047;53.486;10.218;2023-04-01T05:38:40;9.70;99.90
17845;DHT22;9047;53.486;10.218;2023-04-01T05:41:07;9.70;99.90
17845;DHT22;9047;53.486;10.218;2023-04-01T05:43:35;9.70;99.90
17845;DHT22;9047;53.486;10.218;2023-04-01T05:46:03;9.70;99.90
17845;DHT22;9047;53.486;10.218;2023-04-01T05:48:30;9.70;99.90
17845;DHT22;9047;53.486;10.218;2023-04-01T05:50:58;9.70;99.90
17845;DHT22;9047;53.486;10.218;2023-04-01T05:53:30;9.70;99.90
17845;DHT22;9047;53.486;10.218;2023-04-01T05:56:07;9.70;99.90
17845;DHT22;9047;53.486;10.218;2023-04-01T05:58:35;9.60;99.90
17845;DHT22;9047;53.486;10.218;2023-04-01T06:01:03;9.50;99.90
17845;DHT22;9047;53.486;10.218;2023-04-01T06:03:35;9.40;99.90
17845;DHT22;9047;53.486;10.218;2023-04-01T06:06:08;9.30;99.90
17845;DHT22;9047;53.486;10.218;2023-04-01T06:08:45;9.20;99.90
17845;DHT22;9047;53.486;10.218;2023-04-01T06:11:23;9.10;99.90
17845;DHT22;9047;53.486;10.218;2023-04-01T06:14:07;8.90;99.90
17845;DHT22;9047;53.486;10.218;2023-04-01T06:16:48;8.80;99.90
17845;DHT22;9047;53.486;10.218;2023-04-01T06:19:34;8.70;99.90
17845;DHT22;9047;53.486;10.218;2023-04-01T06:25:43;8.60;99.90
17845;DHT22;9047;53.486;10.218;2023-04-01T06:28:35;8.60;99.90
17845;DHT22;9047;53.486;10.218;2023-04-01T06:31:10;8.60;99.90
17845;DHT22;9047;53.486;10.218;2023-04-01T06:33:58;8.60;99.90
17845;DHT22;9047;53.486;10.218;2023-04-01T06:36:56;8.40;99.90
17845;DHT22;9047;53.486;10.218;2023-04-01T06:39:42;8.30;99.90
17845;DHT22;9047;53.486;10.218;2023-04-01T06:42:33;8.40;99.90
17845;DHT22;9047;53.486;10.218;2023-04-01T06:45:13;8.30;99.90
17845;DHT22;9047;53.486;10.218;2023-04-01T06:48:00;8.20;99.90
17845;DHT22;9047;53.486;10.218;2023-04-01T06:50:35;8.20;99.90
17845;DHT22;9047;53.486;10.218;2023-04-01T06:53:09;8.10;99.90
17845;DHT22;9047;53.486;10.218;2023-04-01T06:55:41;8.10;99.90
17845;DHT22;9047;53.486;10.218;2023-04-01T06:58:16;8.10;99.90
17845;DHT22;9047;53.486;10.218;2023-04-01T07:00:52;8.00;99.90
17845;DHT22;9047;53.486;10.218;2023-04-01T07:03:26;8.00;99.90
17845;DHT22;9047;53.486;10.218;2023-04-01T07:06:01;7.90;99.90
17845;DHT22;9047;53.486;10.218;2023-04-01T07:08:38;7.90;99.90
17845;DHT22;9047;53.486;10.218;2023-04-01T07:11:09;7.80;99.90
17845;DHT22;9047;53.486;10.218;2023-04-01T07:13:42;7.80;99.90
17845;DHT22;9047;53.486;10.218;2023-04-01T07:16:16;7.70;99.90
17845;DHT22;9047;53.486;10.218;2023-04-01T07:18:49;7.70;99.90
17845;DHT22;9047;53.486;10.218;2023-04-01T07:21:25;7.70;99.90
17845;DHT22;9047;53.486;10.218;2023-04-01T07:23:56;7.80;99.90
17845;DHT22;9047;53.486;10.218;2023-04-01T07:26:25;7.80;99.90
17845;DHT22;9047;53.486;10.218;2023-04-01T07:28:53;7.80;99.90
17845;DHT22;9047;53.486;10.218;2023-04-01T07:31:32;7.80;99.90
17845;DHT22;9047;53.486;10.218;2023-04-01T07:34:11;7.90;99.90
17845;DHT22;9047;53.486;10.218;2023-04-01T07:36:43;7.80;99.90
17845;DHT22;9047;53.486;10.218;2023-04-01T07:39:21;7.80;99.90
17845;DHT22;9047;53.486;10.218;2023-04-01T07:42:00;7.80;99.90
17845;DHT22;9047;53.486;10.218;2023-04-01T07:44:38;7.80;99.90
17845;DHT22;9047;53.486;10.218;2023-04-01T07:47:27;7.80;99.90
17845;DHT22;9047;53.486;10.218;2023-04-01T07:50:05;7.80;99.90
17845;DHT22;9047;53.486;10.218;2023-04-01T07:52:43;7.80;99.90
17845;DHT22;9047;53.486;10.218;2023-04-01T07:55:18;7.80;99.90
17845;DHT22;9047;53.486;10.218;2023-04-01T07:57:55;7.80;99.90
17845;DHT22;9047;53.486;10.218;2023-04-01T08:00:30;7.70;99.90
17845;DHT22;9047;53.486;10.218;2023-04-01T08:06:04;7.80;99.90
17845;DHT22;9047;53.486;10.218;2023-04-01T08:08:48;7.80;99.90
17845;DHT22;9047;53.486;10.218;2023-04-01T08:11:41;7.70;99.90
17845;DHT22;9047;53.486;10.218;2023-04-01T08:14:19;7.70;99.90
17845;DHT22;9047;53.486;10.218;2023-04-01T08:16:54;7.70;99.90
17845;DHT22;9047;53.486;10.218;2023-04-01T08:19:46;7.70;99.90
17845;DHT22;9047;53.486;10.218;2023-04-01T08:22:22;7.70;99.90
17845;DHT22;9047;53.486;10.218;2023-04-01T08:24:51;7.70;99.90
17845;DHT22;9047;53.486;10.218;2023-04-01T08:27:23;7.80;99.90
17845;DHT22;9047;53.486;10.218;2023-04-01T08:29:58;7.80;99.90
17845;DHT22;9047;53.486;10.218;2023-04-01T08:32:30;7.80;99.90
17845;DHT22;9047;53.486;10.218;2023-04-01T08:35:07;7.80;99.90
17845;DHT22;9047;53.486;10.218;2023-04-01T08:37:39;7.80;99.90
17845;DHT22;9047;53.486;10.218;2023-04-01T08:40:35;7.80;99.90
17845;DHT22;9047;53.486;10.218;2023-04-01T08:43:09;7.80;99.90
17845;DHT22;9047;53.486;10.218;2023-04-01T08:45:53;7.80;99.90
17845;DHT22;9047;53.486;10.218;2023-04-01T08:48:32;7.80;99.90
17845;DHT22;9047;53.486;10.218;2023-04-01T08:51:28;7.70;99.90
17845;DHT22;9047;53.486;10.218;2023-04-01T08:54:16;7.70;99.90
17845;DHT22;9047;53.486;10.218;2023-04-01T08:56:54;7.70;99.90
17845;DHT22;9047;53.486;10.218;2023-04-01T08:59:37;7.80;99.90
17845;DHT22;9047;53.486;10.218;2023-04-01T09:02:45;7.90;99.90
17845;DHT22;9047;53.486;10.218;2023-04-01T09:05:31;7.90;99.90
17845;DHT22;9047;53.486;10.218;2023-04-01T09:08:13;7.80;99.90
17845;DHT22;9047;53.486;10.218;2023-04-01T09:11:07;7.90;99.90
17845;DHT22;9047;53.486;10.218;2023-04-01T09:13:59;7.90;99.90
17845;DHT22;9047;53.486;10.218;2023-04-01T09:16:55;7.80;99.90
17845;DHT22;9047;53.486;10.218;2023-04-01T09:19:33;7.80;99.90
17845;DHT22;9047;53.486;10.218;2023-04-01T09:22:37;7.80;99.90
17845;DHT22;9047;53.486;10.218;2023-04-01T09:25:30;7.80;99.90
17845;DHT22;9047;53.486;10.218;2023-04-01T09:28:09;7.80;99.90
17845;DHT22;9047;53.486;10.218;2023-04-01T09:31:05;7.90;99.90
17845;DHT22;9047;53.486;10.218;2023-04-01T09:33:52;7.80;99.90
17845;DHT22;9047;53.486;10.218;2023-04-01T09:36:34;7.90;99.90
17845;DHT22;9047;53.486;10.218;2023-04-01T09:39:17;7.80;99.90
17845;DHT22;9047;53.486;10.218;2023-04-01T09:42:04;7.80;99.90
17845;DHT22;9047;53.486;10.218;2023-04-01T09:44:36;7.80;99.90
17845;DHT22;9047;53.486;10.218;2023-04-01T09:47:16;7.80;99.90
17845;DHT22;9047;53.486;10.218;2023-04-01T09:50:00;7.80;99.90
17845;DHT22;9047;53.486;10.218;2023-04-01T09:52:41;7.80;99.90
17845;DHT22;9047;53.486;10.218;2023-04-01T09:55:29;7.80;99.90
17845;DHT22;9047;53.486;10.218;2023-04-01T09:58:33;7.80;99.90
17845;DHT22;9047;53.486;10.218;2023-04-01T10:01:42;7.80;99.90
17845;DHT22;9047;53.486;10.218;2023-04-01T10:04:49;7.90;99.90
17845;DHT22;9047;53.486;10.218;2023-04-01T10:10:46;7.90;99.90
17845;DHT22;9047;53.486;10.218;2023-04-01T10:13:41;8.00;99.90
17845;DHT22;9047;53.486;10.218;2023-04-01T10:16:49;8.10;99.90
17845;DHT22;9047;53.486;10.218;2023-04-01T10:19:49;8.10;99.90
17845;DHT22;9047;53.486;10.218;2023-04-01T10:22:45;8.10;99.90
17845;DHT22;9047;53.486;10.218;2023-04-01T10:25:34;8.10;99.90
17845;DHT22;9047;53.486;10.218;2023-04-01T10:28:31;8.00;99.90
17845;DHT22;9047;53.486;10.218;2023-04-01T10:34:31;8.20;99.90
17845;DHT22;9047;53.486;10.218;2023-04-01T10:37:13;8.30;99.90
17845;DHT22;9047;53.486;10.218;2023-04-01T10:40:16;8.40;99.90
17845;DHT22;9047;53.486;10.218;2023-04-01T10:43:25;8.30;99.90
17845;DHT22;9047;53.486;10.218;2023-04-01T10:46:24;8.30;99.90
17845;DHT22;9047;53.486;10.218;2023-04-01T10:49:33;8.30;99.90
17845;DHT22;9047;53.486;10.218;2023-04-01T10:55:46;8.40;99.90
17845;DHT22;9047;53.486;10.218;2023-04-01T11:01:35;8.40;99.90
17845;DHT22;9047;53.486;10.218;2023-04-01T11:07:55;8.30;99.90
17845;DHT22;9047;53.486;10.218;2023-04-01T11:17:05;8.50;99.90
17845;DHT22;9047;53.486;10.218;2023-04-01T11:22:40;8.60;99.90
17845;DHT22;9047;53.486;10.218;2023-04-01T11:25:36;8.60;99.90
17845;DHT22;9047;53.486;10.218;2023-04-01T11:31:22;8.50;99.90
17845;DHT22;9047;53.486;10.218;2023-04-01T11:33:57;8.50;99.90
17845;DHT22;9047;53.486;10.218;2023-04-01T11:36:37;8.50;99.90
17845;DHT22;9047;53.486;10.218;2023-04-01T11:39:19;8.50;99.90
17845;DHT22;9047;53.486;10.218;2023-04-01T11:41:59;8.50;99.90
17845;DHT22;9047;53.486;10.218;2023-04-01T11:44:31;8.40;99.90
17845;DHT22;9047;53.486;10.218;2023-04-01T11:47:13;8.40;99.90
17845;DHT22;9047;53.486;10.218;2023-04-01T11:49:57;8.30;99.90
17845;DHT22;9047;53.486;10.218;2023-04-01T11:52:33;8.10;99.90
17845;DHT22;9047;53.486;10.218;2023-04-01T11:55:24;8.10;99.90
17845;DHT22;9047;53.486;10.218;2023-04-01T12:01:17;8.10;99.90
17845;DHT22;9047;53.486;10.218;2023-04-01T12:07:05;8.00;99.90
17845;DHT22;9047;53.486;10.218;2023-04-01T12:09:46;8.00;99.90
17845;DHT22;9047;53.486;10.218;2023-04-01T12:12:23;7.90;99.90
17845;DHT22;9047;53.486;10.218;2023-04-01T12:15:00;8.00;99.90
17845;DHT22;9047;53.486;10.218;2023-04-01T12:17:37;8.10;99.90
17845;DHT22;9047;53.486;10.218;2023-04-01T12:20:26;8.20;99.90
17845;DHT22;9047;53.486;10.218;2023-04-01T12:23:03;8.30;99.90
17845;DHT22;9047;53.486;10.218;2023-04-01T12:28:44;8.30;99.90
17845;DHT22;9047;53.486;10.218;2023-04-01T12:31:22;8.40;99.90
17845;DHT22;9047;53.486;10.218;2023-04-01T12:34:15;8.40;99.90
17845;DHT22;9047;53.486;10.218;2023-04-01T12:36:56;8.40;99.90
17845;DHT22;9047;53.486;10.218;2023-04-01T12:39:44;8.30;99.90
17845;DHT22;9047;53.486;10.218;2023-04-01T12:42:24;8.30;99.90
17845;DHT22;9047;53.486;10.218;2023-04-01T12:45:14;8.20;99.90
17845;DHT22;9047;53.486;10.218;2023-04-01T12:48:15;8.20;99.90
17845;DHT22;9047;53.486;10.218;2023-04-01T12:51:09;8.10;99.90
17845;DHT22;9047;53.486;10.218;2023-04-01T12:53:58;8.10;99.90
17845;DHT22;9047;53.486;10.218;2023-04-01T12:56:36;8.10;99.90
17845;DHT22;9047;53.486;10.218;2023-04-01T12:59:38;8.00;99.90
17845;DHT22;9047;53.486;10.218;2023-04-01T13:02:13;8.00;99.90
17845;DHT22;9047;53.486;10.218;2023-04-01T13:05:20;7.90;99.90
17845;DHT22;9047;53.486;10.218;2023-04-01T13:07:58;7.80;99.90
17845;DHT22;9047;53.486;10.218;2023-04-01T13:10:37;7.80;99.90
17845;DHT22;9047;53.486;10.218;2023-04-01T13:13:24;7.70;99.90
17845;DHT22;9047;53.486;10.218;2023-04-01T13:15:52;7.60;99.90
17845;DHT22;9047;53.486;10.218;2023-04-01T13:18:28;7.70;99.90
17845;DHT22;9047;53.486;10.218;2023-04-01T13:21:05;7.60;99.90
17845;DHT22;9047;53.486;10.218;2023-04-01T13:23:47;7.50;99.90
17845;DHT22;9047;53.486;10.218;2023-04-01T13:26:20;7.60;99.90
17845;DHT22;9047;53.486;10.218;2023-04-01T13:28:53;7.60;99.90
17845;DHT22;9047;53.486;10.218;2023-04-01T13:31:47;7.70;99.90
17845;DHT22;9047;53.486;10.218;2023-04-01T13:34:25;7.70;99.90
17845;DHT22;9047;53.486;10.218;2023-04-01T13:37:04;7.80;99.90
17845;DHT22;9047;53.486;10.218;2023-04-01T13:39:50;7.80;99.90
17845;DHT22;9047;53.486;10.218;2023-04-01T13:42:24;7.70;99.90
17845;DHT22;9047;53.486;10.218;2023-04-01T13:44:59;7.70;99.90
17845;DHT22;9047;53.486;10.218;2023-04-01T13:51:03;7.60;99.90
17845;DHT22;9047;53.486;10.218;2023-04-01T13:54:00;7.70;99.90
17845;DHT22;9047;53.486;10.218;2023-04-01T13:56:41;7.80;99.90
17845;DHT22;9047;53.486;10.218;2023-04-01T13:59:36;7.90;99.90
17845;DHT22;9047;53.486;10.218;2023-04-01T14:02:33;8.00;99.90
17845;DHT22;9047;53.486;10.218;2023-04-01T14:05:24;8.10;99.90
17845;DHT22;9047;53.486;10.218;2023-04-01T14:08:08;8.20;99.90
17845;DHT22;9047;53.486;10.218;2023-04-01T14:10:42;8.20;99.90
17845;DHT22;9047;53.486;10.218;2023-04-01T14:13:15;8.10;99.90
17845;DHT22;9047;53.486;10.218;2023-04-01T14:16:05;8.10;99.90
17845;DHT22;9047;53.486;10.218;2023-04-01T14:18:46;8.00;99.90
17845;DHT22;9047;53.486;10.218;2023-04-01T14:21:26;7.90;99.90
17845;DHT22;9047;53.486;10.218;2023-04-01T14:24:17;7.80;99.90
17845;DHT22;9047;53.486;10.218;2023-04-01T14:30:17;7.50;99.90
17845;DHT22;9047;53.486;10.218;2023-04-01T14:32:55;7.40;99.90
17845;DHT22;9047;53.486;10.218;2023-04-01T14:35:34;7.20;99.90
17845;DHT22;9047;53.486;10.218;2023-04-01T14:38:26;7.10;99.90
17845;DHT22;9047;53.486;10.218;2023-04-01T14:41:02;7.10;99.90
17845;DHT22;9047;53.486;10.218;2023-04-01T14:43:46;7.00;99.90
17845;DHT22;9047;53.486;10.218;2023-04-01T14:46:55;7.00;99.90
17845;DHT22;9047;53.486;10.218;2023-04-01T14:49:34;7.10;99.90
17845;DHT22;9047;53.486;10.218;2023-04-01T14:52:10;7.20;99.90
17845;DHT22;9047;53.486;10.218;2023-04-01T14:54:39;7.10;99.90
17845;DHT22;9047;53.486;10.218;2023-04-01T14:57:11;7.10;99.90
17845;DHT22;9047;53.486;10.218;2023-04-01T14:59:47;7.10;99.90
17845;DHT22;9047;53.486;10.218;2023-04-01T15:02:41;7.10;99.90
17845;DHT22;9047;53.486;10.218;2023-04-01T15:05:18;7.00;99.90
17845;DHT22;9047;53.486;10.218;2023-04-01T15:08:02;7.00;99.90
17845;DHT22;9047;53.486;10.218;2023-04-01T15:10:58;7.00;99.90
17845;DHT22;9047;53.486;10.218;2023-04-01T15:13:49;6.90;99.90
17845;DHT22;9047;53.486;10.218;2023-04-01T15:16:23;6.80;99.90
17845;DHT22;9047;53.486;10.218;2023-04-01T15:19:01;6.80;99.90
17845;DHT22;9047;53.486;10.218;2023-04-01T15:24:46;6.60;99.90
17845;DHT22;9047;53.486;10.218;2023-04-01T15:27:25;6.60;99.90
17845;DHT22;9047;53.486;10.218;2023-04-01T15:30:24;6.60;99.90
17845;DHT22;9047;53.486;10.218;2023-04-01T15:33:27;6.60;99.90
17845;DHT22;9047;53.486;10.218;2023-04-01T15:36:02;6.60;99.90
17845;DHT22;9047;53.486;10.218;2023-04-01T15:38:36;6.60;99.90
17845;DHT22;9047;53.486;10.218;2023-04-01T15:41:14;6.60;99.90
17845;DHT22;9047;53.486;10.218;2023-04-01T15:43:42;6.60;99.90
17845;DHT22;9047;53.486;10.218;2023-04-01T15:46:21;6.60;99.90
17845;DHT22;9047;53.486;10.218;2023-04-01T15:49:03;6.60;99.90
17845;DHT22;9047;53.486;10.218;2023-04-01T15:52:00;6.50;99.90
17845;DHT22;9047;53.486;10.218;2023-04-01T15:54:50;6.40;99.90
17845;DHT22;9047;53.486;10.218;2023-04-01T15:57:27;6.40;99.90
17845;DHT22;9047;53.486;10.218;2023-04-01T16:00:25;6.30;99.90
17845;DHT22;9047;53.486;10.218;2023-04-01T16:03:09;6.20;99.90
17845;DHT22;9047;53.486;10.218;2023-04-01T16:05:43;6.20;99.90
17845;DHT22;9047;53.486;10.218;2023-04-01T16:08:34;6.10;99.90
17845;DHT22;9047;53.486;10.218;2023-04-01T16:11:14;6.00;99.90
17845;DHT22;9047;53.486;10.218;2023-04-01T16:13:52;6.00;99.90
17845;DHT22;9047;53.486;10.218;2023-04-01T16:16:28;5.90;99.90
17845;DHT22;9047;53.486;10.218;2023-04-01T16:19:08;5.90;99.90
17845;DHT22;9047;53.486;10.218;2023-04-01T16:21:43;5.90;99.90
17845;DHT22;9047;53.486;10.218;2023-04-01T16:24:22;5.80;99.90
17845;DHT22;9047;53.486;10.218;2023-04-01T16:26:53;5.90;99.90
17845;DHT22;9047;53.486;10.218;2023-04-01T16:29:27;5.80;99.90
17845;DHT22;9047;53.486;10.218;2023-04-01T16:32:00;5.80;99.90
17845;DHT22;9047;53.486;10.218;2023-04-01T16:34:34;5.80;99.90
17845;DHT22;9047;53.486;10.218;2023-04-01T16:37:07;5.80;99.90
17845;DHT22;9047;53.486;10.218;2023-04-01T16:39:46;5.80;99.90
17845;DHT22;9047;53.486;10.218;2023-04-01T16:42:34;5.80;99.90
17845;DHT22;9047;53.486;10.218;2023-04-01T16:45:24;5.80;99.90
17845;DHT22;9047;53.486;10.218;2023-04-01T16:47:57;5.70;99.90
17845;DHT22;9047;53.486;10.218;2023-04-01T16:50:49;5.70;99.90
17845;DHT22;9047;53.486;10.218;2023-04-01T16:53:25;5.70;99.90
17845;DHT22;9047;53.486;10.218;2023-04-01T16:56:06;5.60;99.90
17845;DHT22;9047;53.486;10.218;2023-04-01T16:58:39;5.60;99.90
17845;DHT22;9047;53.486;10.218;2023-04-01T17:01:09;5.50;99.90
17845;DHT22;9047;53.486;10.218;2023-04-01T17:03:40;5.50;99.90
17845;DHT22;9047;53.486;10.218;2023-04-01T17:09:20;5.40;99.90
17845;DHT22;9047;53.486;10.218;2023-04-01T17:11:57;5.40;99.90
17845;DHT22;9047;53.486;10.218;2023-04-01T17:14:27;5.40;99.90
17845;DHT22;9047;53.486;10.218;2023-04-01T17:20:11;5.30;99.90
17845;DHT22;9047;53.486;10.218;2023-04-01T17:22:46;5.30;99.90
17845;DHT22;9047;53.486;10.218;2023-04-01T17:25:25;5.20;99.90
17845;DHT22;9047;53.486;10.218;2023-04-01T17:28:09;5.20;99.90
17845;DHT22;9047;53.486;10.218;2023-04-01T17:30:39;5.20;99.90
17845;DHT22;9047;53.486;10.218;2023-04-01T17:36:25;5.10;99.90
17845;DHT22;9047;53.486;10.218;2023-04-01T17:39:23;5.10;99.90
17845;DHT22;9047;53.486;10.218;2023-04-01T17:42:00;5.10;99.90
17845;DHT22;9047;53.486;10.218;2023-04-01T17:44:59;5.10;99.90
17845;DHT22;9047;53.486;10.218;2023-04-01T17:47:49;5.00;99.90
17845;DHT22;9047;53.486;10.218;2023-04-01T17:50:24;5.10;99.90
17845;DHT22;9047;53.486;10.218;2023-04-01T17:53:16;5.00;99.90
17845;DHT22;9047;53.486;10.218;2023-04-01T17:55:56;5.00;99.90
17845;DHT22;9047;53.486;10.218;2023-04-01T17:58:29;5.00;99.90
17845;DHT22;9047;53.486;10.218;2023-04-01T18:01:15;5.00;99.90